createdAt,value
2023-04-11T00:00:03.446Z,4.70
2023-04-11T00:02:34.710Z,4.53
2023-04-11T00:05:03.363Z,5.17
2023-04-11T00:07:31.199Z,5.03
2023-04-11T00:09:59.019Z,4.83
2023-04-11T00:12:26.872Z,4.90
2023-04-11T00:14:55.049Z,4.60
2023-04-11T00:17:24.753Z,4.90
2023-04-11T00:19:54.137Z,4.93
2023-04-11T00:22:24.455Z,4.80
2023-04-11T00:24:53.134Z,4.70
2023-04-11T00:27:21.891Z,5.07
2023-04-11T00:29:49.878Z,4.73
2023-04-11T00:32:17.947Z,5.10
2023-04-11T00:34:47.136Z,4.53
2023-04-11T00:37:15.225Z,4.87
2023-04-11T00:39:42.980Z,5.27
2023-04-11T00:42:10.737Z,4.83
2023-04-11T00:44:40.225Z,5.30
2023-04-11T00:47:08.428Z,5.20
2023-04-11T00:49:36.707Z,5.67
2023-04-11T00:52:06.501Z,5.50
2023-04-11T00:54:34.627Z,5.07
2023-04-11T00:57:03.684Z,5.13
2023-04-11T00:59:32.705Z,5.20
2023-04-11T01:02:01.575Z,5.83
2023-04-11T01:04:30.653Z,5.77
2023-04-11T01:07:04.162Z,5.67
2023-04-11T01:09:35.436Z,5.60
2023-04-11T01:12:04.008Z,5.47
2023-04-11T01:14:31.930Z,5.53
2023-04-11T01:17:02.209Z,5.77
2023-04-11T01:19:30.884Z,5.83
2023-04-11T01:21:59.647Z,5.20
2023-04-11T01:24:29.009Z,5.70
2023-04-11T01:26:57.306Z,6.20
2023-04-11T01:29:25.104Z,4.97
2023-04-11T01:31:53.434Z,5.63
2023-04-11T01:34:22.628Z,5.83
2023-04-11T01:36:50.466Z,5.53
2023-04-11T01:39:18.337Z,5.27
2023-04-11T01:41:47.893Z,5.70
2023-04-11T01:44:16.130Z,5.33
2023-04-11T01:46:44.434Z,5.10
2023-04-11T01:49:15.486Z,5.73
2023-04-11T01:51:43.512Z,5.70
2023-04-11T01:54:11.385Z,5.80
2023-04-11T01:56:39.282Z,5.53
2023-04-11T01:59:08.444Z,6.20
2023-04-11T02:01:36.461Z,5.63
2023-04-11T02:04:04.492Z,5.03
2023-04-11T02:06:32.379Z,5.47
2023-04-11T02:09:00.135Z,6.03
2023-04-11T02:11:27.978Z,5.47
2023-04-11T02:13:55.780Z,5.50
2023-04-11T02:16:29.969Z,5.17
2023-04-11T02:18:58.112Z,5.40
2023-04-11T02:21:26.762Z,5.43
2023-04-11T02:23:56.611Z,5.40
2023-04-11T02:26:26.834Z,4.90
2023-04-11T02:28:54.848Z,5.63
2023-04-11T02:31:23.124Z,4.97
2023-04-11T02:33:52.460Z,5.07
2023-04-11T02:36:20.180Z,5.33
2023-04-11T02:38:50.474Z,7.07
2023-04-11T02:41:18.285Z,5.27
2023-04-11T02:43:47.707Z,5.77
2023-04-11T02:46:15.486Z,5.50
2023-04-11T02:48:43.283Z,5.57
2023-04-11T02:51:13.584Z,5.77
2023-04-11T02:53:41.663Z,5.63
2023-04-11T02:56:11.965Z,5.40
2023-04-11T02:58:42.179Z,5.70
2023-04-11T03:01:11.769Z,5.80
2023-04-11T03:03:39.767Z,5.23
2023-04-11T03:06:08.980Z,5.10
2023-04-11T03:08:39.145Z,5.60
2023-04-11T03:11:07.227Z,4.93
2023-04-11T03:13:36.995Z,5.70
2023-04-11T03:16:05.220Z,5.73
2023-04-11T03:18:33.065Z,5.17
2023-04-11T03:21:00.809Z,5.93
2023-04-11T03:23:28.689Z,5.87
2023-04-11T03:25:58.466Z,5.37
2023-04-11T03:28:26.326Z,5.47
2023-04-11T03:30:55.194Z,5.37
2023-04-11T03:33:23.330Z,5.00
2023-04-11T03:35:51.227Z,5.23
2023-04-11T03:38:19.019Z,4.77
2023-04-11T03:40:46.900Z,5.30
2023-04-11T03:43:16.822Z,5.20
2023-04-11T03:45:44.808Z,5.53
2023-04-11T03:48:12.818Z,5.50
2023-04-11T03:50:40.937Z,4.80
2023-04-11T03:53:08.742Z,4.80
2023-04-11T03:55:36.749Z,5.27
2023-04-11T03:58:04.499Z,5.17
2023-04-11T04:00:33.673Z,8.13
2023-04-11T04:03:01.672Z,8.27
2023-04-11T04:05:29.667Z,9.07
2023-04-11T04:07:59.847Z,8.53
2023-04-11T04:10:27.759Z,7.73
2023-04-11T04:12:56.347Z,9.33
2023-04-11T04:15:24.201Z,8.50
2023-04-11T04:17:53.388Z,7.40
2023-04-11T04:20:21.341Z,6.73
2023-04-11T04:22:49.045Z,6.40
2023-04-11T04:25:20.103Z,6.23
2023-04-11T04:27:47.889Z,6.23
2023-04-11T04:30:16.433Z,6.13
2023-04-11T04:32:45.096Z,5.60
2023-04-11T04:35:16.811Z,5.77
2023-04-11T04:37:46.269Z,5.33
2023-04-11T04:40:15.950Z,5.30
2023-04-11T04:42:43.812Z,5.97
2023-04-11T04:45:13.088Z,6.10
2023-04-11T04:47:41.168Z,5.70
2023-04-11T04:50:10.053Z,5.70
2023-04-11T04:52:39.306Z,5.47
2023-04-11T04:55:07.996Z,5.50
2023-04-11T04:57:36.149Z,6.63
2023-04-11T05:00:11.794Z,5.73
2023-04-11T05:02:40.653Z,6.20
2023-04-11T05:05:09.294Z,6.63
2023-04-11T05:07:37.343Z,6.53
2023-04-11T05:10:07.286Z,6.70
2023-04-11T05:12:34.981Z,6.37
2023-04-11T05:15:03.091Z,7.30
2023-04-11T05:17:31.224Z,7.27
2023-04-11T05:19:59.009Z,6.73
2023-04-11T05:22:27.274Z,7.10
2023-04-11T05:24:56.925Z,7.33
2023-04-11T05:27:27.110Z,7.37
2023-04-11T05:29:55.276Z,7.30
2023-04-11T05:32:24.687Z,7.80
2023-04-11T05:34:55.813Z,7.97
2023-04-11T05:37:26.421Z,8.03
2023-04-11T05:39:56.554Z,8.13
2023-04-11T05:42:24.408Z,9.07
2023-04-11T05:44:53.588Z,9.10
2023-04-11T05:47:21.346Z,9.83
2023-04-11T05:49:49.401Z,9.47
2023-04-11T05:52:17.160Z,8.60
2023-04-11T05:54:44.892Z,8.87
2023-04-11T05:57:12.687Z,9.27
2023-04-11T05:59:40.447Z,10.20
2023-04-11T06:02:09.878Z,8.80
2023-04-11T06:04:37.985Z,9.10
2023-04-11T06:07:05.941Z,10.13
2023-04-11T06:09:34.161Z,9.67
2023-04-11T06:12:02.202Z,9.53
2023-04-11T06:14:30.186Z,9.57
2023-04-11T06:16:57.861Z,9.33
2023-04-11T06:19:27.062Z,9.40
2023-04-11T06:21:55.094Z,10.00
2023-04-11T06:24:36.024Z,9.77
2023-04-11T06:27:04.440Z,9.10
2023-04-11T06:29:32.235Z,9.10
2023-04-11T06:32:00.741Z,9.17
2023-04-11T06:34:29.974Z,9.30
2023-04-11T06:36:58.277Z,8.80
2023-04-11T06:39:26.167Z,8.43
2023-04-11T06:41:54.288Z,8.90
2023-04-11T06:44:22.111Z,8.47
2023-04-11T06:46:49.958Z,9.10
2023-04-11T06:49:18.803Z,8.23
2023-04-11T06:51:50.015Z,8.27
2023-04-11T06:54:18.263Z,8.00
2023-04-11T06:56:46.017Z,8.87
2023-04-11T06:59:14.335Z,8.80
2023-04-11T07:01:42.240Z,8.80
2023-04-11T07:04:10.293Z,8.63
2023-04-11T07:06:38.296Z,8.30
2023-04-11T07:09:09.556Z,8.07
2023-04-11T07:11:39.583Z,8.30
2023-04-11T07:14:07.426Z,7.83
2023-04-11T07:16:35.287Z,7.73
2023-04-11T07:19:03.280Z,8.73
2023-04-11T07:21:32.467Z,7.90
2023-04-11T07:24:01.226Z,7.57
2023-04-11T07:26:32.848Z,7.60
2023-04-11T07:29:00.913Z,7.43
2023-04-11T07:31:28.760Z,7.10
2023-04-11T07:33:56.642Z,7.70
2023-04-11T07:36:28.373Z,8.70
2023-04-11T07:38:56.124Z,7.27
2023-04-11T07:41:23.936Z,7.67
2023-04-11T07:43:53.033Z,7.47
2023-04-11T07:46:21.004Z,8.00
2023-04-11T07:48:48.797Z,7.20
2023-04-11T07:51:17.054Z,7.27
2023-04-11T07:53:45.022Z,7.67
2023-04-11T07:56:13.203Z,6.93
2023-04-11T07:58:41.027Z,7.37
2023-04-11T08:01:20.747Z,6.47
2023-04-11T08:03:48.647Z,6.97
2023-04-11T08:06:16.877Z,6.50
2023-04-11T08:08:46.506Z,6.23
2023-04-11T08:11:14.514Z,6.30
2023-04-11T08:13:42.603Z,5.97
2023-04-11T08:16:15.137Z,5.67
2023-04-11T08:18:43.397Z,5.67
2023-04-11T08:21:12.052Z,6.10
2023-04-11T08:23:42.054Z,6.13
2023-04-11T08:26:11.845Z,6.63
2023-04-11T08:28:42.434Z,6.50
2023-04-11T08:31:13.408Z,6.47
2023-04-11T08:33:41.632Z,6.20
2023-04-11T08:36:11.075Z,6.83
2023-04-11T08:38:39.398Z,7.07
2023-04-11T08:41:07.745Z,6.13
2023-04-11T08:43:36.009Z,6.43
2023-04-11T08:46:04.870Z,5.93
2023-04-11T08:48:34.024Z,7.07
2023-04-11T08:51:01.819Z,6.60
2023-04-11T08:53:30.468Z,7.07
2023-04-11T08:55:59.731Z,6.77
2023-04-11T08:58:27.722Z,6.80
2023-04-11T09:00:56.812Z,7.03
2023-04-11T09:03:24.728Z,6.60
2023-04-11T09:05:57.580Z,7.03
2023-04-11T09:08:39.052Z,6.60
2023-04-11T09:11:07.128Z,6.23
2023-04-11T09:13:34.993Z,6.73
2023-04-11T09:16:07.350Z,6.03
2023-04-11T09:18:36.566Z,6.27
2023-04-11T09:21:07.226Z,6.40
2023-04-11T09:23:35.420Z,6.57
2023-04-11T09:26:03.274Z,6.10
2023-04-11T09:28:40.656Z,6.60
2023-04-11T09:31:10.113Z,5.77
2023-04-11T09:33:37.888Z,6.70
2023-04-11T09:36:19.605Z,6.30
2023-04-11T09:38:47.479Z,5.90
2023-04-11T09:41:16.216Z,7.10
2023-04-11T09:43:51.396Z,6.40
2023-04-11T09:46:21.231Z,6.70
2023-04-11T09:48:49.445Z,5.47
2023-04-11T09:51:28.174Z,5.53
2023-04-11T09:54:03.369Z,5.53
2023-04-11T09:56:33.975Z,5.70
2023-04-11T09:59:02.387Z,5.77
2023-04-11T10:01:30.159Z,6.53
2023-04-11T10:03:58.696Z,6.40
2023-04-11T10:06:33.851Z,7.07
2023-04-11T10:09:09.678Z,6.80
2023-04-11T10:11:38.064Z,6.63
2023-04-11T10:14:05.826Z,6.17
2023-04-11T10:16:34.520Z,6.40
2023-04-11T10:19:24.946Z,6.20
2023-04-11T10:21:54.047Z,6.20
2023-04-11T10:24:23.828Z,6.40
2023-04-11T10:26:53.038Z,6.40
2023-04-11T10:29:53.081Z,6.73
2023-04-11T10:32:23.021Z,6.10
2023-04-11T10:35:32.136Z,6.23
2023-04-11T10:38:01.404Z,5.57
2023-04-11T10:40:29.265Z,7.17
2023-04-11T10:42:57.496Z,6.20
2023-04-11T10:45:27.349Z,6.20
2023-04-11T10:48:10.881Z,5.57
2023-04-11T10:50:43.439Z,5.70
2023-04-11T10:53:37.522Z,6.37
2023-04-11T10:56:06.102Z,6.23
2023-04-11T10:58:38.795Z,6.07
2023-04-11T11:01:25.800Z,5.87
2023-04-11T11:04:01.630Z,5.50
2023-04-11T11:06:31.068Z,5.50
2023-04-11T11:09:00.372Z,4.83
2023-04-11T11:11:28.196Z,5.63
2023-04-11T11:13:57.085Z,4.70
2023-04-11T11:16:26.436Z,5.47
2023-04-11T11:18:55.733Z,6.03
2023-04-11T11:21:28.374Z,5.73
2023-04-11T11:23:58.285Z,5.60
2023-04-11T11:26:41.156Z,4.67
2023-04-11T11:29:10.194Z,4.77
2023-04-11T11:31:39.495Z,4.37
2023-04-11T11:36:41.369Z,5.00
2023-04-11T11:39:10.384Z,4.27
2023-04-11T11:41:38.604Z,4.17
2023-04-11T11:44:07.988Z,4.93
2023-04-11T11:46:36.262Z,4.50
2023-04-11T11:49:07.794Z,4.40
2023-04-11T11:51:42.484Z,4.17
2023-04-11T11:54:11.855Z,4.40
2023-04-11T11:56:41.026Z,4.60
2023-04-11T11:59:10.705Z,3.90
2023-04-11T12:01:39.074Z,4.33
2023-04-11T12:04:11.197Z,4.17
2023-04-11T12:06:39.107Z,4.00
2023-04-11T12:09:09.559Z,4.40
2023-04-11T12:11:38.673Z,4.27
2023-04-11T12:14:06.600Z,3.60
2023-04-11T12:16:36.137Z,3.87
2023-04-11T12:19:05.747Z,3.97
2023-04-11T12:21:33.577Z,4.50
2023-04-11T12:24:01.761Z,4.50
2023-04-11T12:26:30.208Z,4.00
2023-04-11T12:28:58.639Z,4.27
2023-04-11T12:31:27.226Z,3.70
2023-04-11T12:33:56.646Z,4.30
2023-04-11T12:36:24.829Z,4.73
2023-04-11T12:38:52.626Z,3.80
2023-04-11T12:41:32.229Z,3.80
2023-04-11T12:44:02.136Z,3.70
2023-04-11T12:46:30.444Z,3.83
2023-04-11T12:48:59.674Z,3.80
2023-04-11T12:51:27.501Z,3.57
2023-04-11T12:53:55.402Z,3.43
2023-04-11T12:56:23.206Z,3.40
2023-04-11T12:58:51.130Z,3.70
2023-04-11T13:01:18.868Z,3.80
2023-04-11T13:03:46.802Z,3.70
2023-04-11T13:06:16.921Z,3.93
2023-04-11T13:08:44.734Z,4.40
2023-04-11T13:11:12.474Z,3.53
2023-04-11T13:13:40.305Z,3.67
2023-04-11T13:16:12.281Z,3.57
2023-04-11T13:18:40.224Z,3.97
2023-04-11T13:21:08.771Z,3.63
2023-04-11T13:23:37.976Z,3.43
2023-04-11T13:26:06.970Z,2.90
2023-04-11T13:28:35.358Z,2.90
2023-04-11T13:31:03.236Z,3.43
2023-04-11T13:33:31.277Z,3.07
2023-04-11T13:36:00.727Z,2.90
2023-04-11T13:38:28.688Z,3.03
2023-04-11T13:40:57.949Z,3.60
2023-04-11T13:43:26.026Z,3.63
2023-04-11T13:45:53.814Z,4.20
2023-04-11T13:48:21.624Z,4.60
2023-04-11T13:50:49.459Z,6.10
2023-04-11T13:53:18.624Z,5.03
2023-04-11T13:55:48.363Z,3.80
2023-04-11T13:58:17.490Z,3.63
2023-04-11T14:00:45.992Z,3.13
2023-04-11T14:03:15.350Z,3.33
2023-04-11T14:05:43.250Z,2.73
2023-04-11T14:08:11.183Z,3.00
2023-04-11T14:10:38.948Z,3.87
2023-04-11T14:13:06.813Z,2.30
2023-04-11T14:15:36.340Z,2.30
2023-04-11T14:18:04.169Z,2.80
2023-04-11T14:20:32.008Z,2.03
2023-04-11T14:22:59.810Z,2.20
2023-04-11T14:25:27.575Z,3.27
2023-04-11T14:27:56.858Z,2.63
2023-04-11T14:30:24.681Z,2.50
2023-04-11T14:32:53.994Z,2.30
2023-04-11T14:35:22.185Z,2.33
2023-04-11T14:37:50.066Z,2.30
2023-04-11T14:40:18.156Z,2.20
2023-04-11T14:42:45.966Z,2.50
2023-04-11T14:45:13.816Z,2.03
2023-04-11T14:47:41.647Z,2.43
2023-04-11T14:50:12.004Z,2.37
2023-04-11T14:52:39.790Z,2.10
2023-04-11T14:55:09.063Z,2.33
2023-04-11T14:57:45.716Z,2.07
2023-04-11T15:00:19.479Z,2.33
2023-04-11T15:02:49.175Z,2.10
2023-04-11T15:05:19.939Z,2.10
2023-04-11T15:07:48.942Z,2.90
2023-04-11T15:10:18.413Z,2.23
2023-04-11T15:12:46.287Z,2.60
2023-04-11T15:15:14.197Z,1.83
2023-04-11T15:17:43.602Z,2.07
2023-04-11T15:20:14.327Z,2.37
2023-04-11T15:22:44.392Z,2.33
2023-04-11T15:25:13.456Z,2.40
2023-04-11T15:27:41.702Z,2.27
2023-04-11T15:30:11.310Z,2.33
2023-04-11T15:32:43.160Z,2.50
2023-04-11T15:35:11.354Z,2.97
2023-04-11T15:37:39.060Z,2.20
2023-04-11T15:40:14.243Z,2.10
2023-04-11T15:42:43.082Z,2.23
2023-04-11T15:45:11.789Z,2.40
2023-04-11T15:47:39.633Z,2.13
2023-04-11T15:50:08.230Z,2.30
2023-04-11T15:52:35.962Z,2.40
2023-04-11T15:55:03.695Z,2.30
2023-04-11T15:57:32.945Z,2.43
2023-04-11T16:00:01.244Z,2.50
2023-04-11T16:02:29.430Z,2.57
2023-04-11T16:04:58.603Z,2.37
2023-04-11T16:07:26.558Z,2.20
2023-04-11T16:09:54.568Z,2.40
2023-04-11T16:12:22.406Z,2.40
2023-04-11T16:14:51.657Z,3.53
2023-04-11T16:17:20.475Z,2.37
2023-04-11T16:19:48.594Z,2.10
2023-04-11T16:22:16.686Z,1.93
2023-04-11T16:24:44.543Z,1.90
2023-04-11T16:27:12.455Z,2.27
2023-04-11T16:29:41.851Z,2.40
2023-04-11T16:32:11.269Z,2.10
2023-04-11T16:34:39.053Z,2.80
2023-04-11T16:37:07.349Z,1.87
2023-04-11T16:39:35.142Z,2.10
2023-04-11T16:42:03.387Z,2.13
2023-04-11T16:44:31.246Z,2.33
2023-04-11T16:46:59.070Z,2.30
2023-04-11T16:49:28.258Z,2.20
2023-04-11T16:51:56.042Z,2.40
2023-04-11T16:54:23.911Z,2.13
2023-04-11T16:56:51.895Z,2.30
2023-04-11T16:59:19.818Z,2.80
2023-04-11T17:01:47.762Z,2.40
2023-04-11T17:04:16.047Z,2.40
2023-04-11T17:06:45.314Z,2.50
2023-04-11T17:09:13.044Z,2.63
2023-04-11T17:11:41.124Z,2.33
2023-04-11T17:14:08.930Z,2.60
2023-04-11T17:16:36.787Z,2.80
2023-04-11T17:19:04.738Z,4.00
2023-04-11T17:21:33.128Z,6.00
2023-04-11T17:24:02.336Z,5.57
2023-04-11T17:26:30.030Z,4.37
2023-04-11T17:28:57.859Z,4.57
2023-04-11T17:31:28.001Z,3.47
2023-04-11T17:33:56.211Z,3.60
2023-04-11T17:36:24.390Z,4.13
2023-04-11T17:38:54.762Z,3.20
2023-04-11T17:41:23.878Z,2.90
2023-04-11T17:43:51.699Z,2.77
2023-04-11T17:46:20.406Z,2.90
2023-04-11T17:48:48.183Z,2.70
2023-04-11T17:51:16.386Z,3.10
2023-04-11T17:53:44.074Z,2.87
2023-04-11T17:56:12.485Z,3.00
2023-04-11T17:58:44.874Z,3.37
2023-04-11T18:01:12.858Z,3.60
2023-04-11T18:03:41.226Z,3.03
2023-04-11T18:06:09.862Z,3.17
2023-04-11T18:08:50.365Z,3.53
2023-04-11T18:11:19.215Z,4.00
2023-04-11T18:13:50.987Z,4.03
2023-04-11T18:16:19.015Z,3.90
2023-04-11T18:18:47.299Z,4.70
2023-04-11T18:21:15.941Z,5.20
2023-04-11T18:23:45.915Z,5.43
2023-04-11T18:26:13.856Z,5.13
2023-04-11T18:28:41.666Z,7.63
2023-04-11T18:31:11.694Z,12.83
2023-04-11T18:33:42.697Z,14.20
2023-04-11T18:36:27.793Z,13.50
2023-04-11T18:38:56.245Z,11.63
2023-04-11T18:41:24.845Z,9.40
2023-04-11T18:43:52.712Z,8.53
2023-04-11T18:46:21.941Z,7.87
2023-04-11T18:48:49.761Z,7.00
2023-04-11T18:51:17.543Z,5.60
2023-04-11T18:53:45.804Z,5.50
2023-04-11T18:56:13.573Z,4.90
2023-04-11T18:58:45.687Z,4.27
2023-04-11T19:01:17.007Z,4.70
2023-04-11T19:03:46.944Z,4.33
2023-04-11T19:06:15.050Z,4.53
2023-04-11T19:08:42.859Z,4.90
2023-04-11T19:11:10.710Z,4.00
2023-04-11T19:13:38.606Z,3.53
2023-04-11T19:16:07.066Z,4.13
2023-04-11T19:18:34.872Z,4.10
2023-04-11T19:21:04.100Z,4.00
2023-04-11T19:23:32.284Z,4.63
2023-04-11T19:26:00.732Z,4.13
2023-04-11T19:28:28.461Z,4.67
2023-04-11T19:30:56.499Z,4.53
2023-04-11T19:33:26.113Z,4.13
2023-04-11T19:35:54.251Z,4.50
2023-04-11T19:38:23.533Z,4.97
2023-04-11T19:40:51.304Z,4.70
2023-04-11T19:43:20.865Z,5.07
2023-04-11T19:45:48.733Z,5.03
2023-04-11T19:48:16.982Z,5.53
2023-04-11T19:50:44.907Z,6.17
2023-04-11T19:53:12.602Z,6.07
2023-04-11T19:55:41.793Z,6.10
2023-04-11T19:58:09.743Z,6.93
2023-04-11T20:00:38.582Z,5.80
2023-04-11T20:03:08.079Z,6.47
2023-04-11T20:05:36.076Z,6.40
2023-04-11T20:08:03.958Z,6.53
2023-04-11T20:10:31.751Z,6.57
2023-04-11T20:13:01.002Z,6.60
2023-04-11T20:15:29.110Z,6.93
2023-04-11T20:17:57.904Z,6.43
2023-04-11T20:20:27.900Z,6.67
2023-04-11T20:22:55.683Z,5.90
2023-04-11T20:25:23.550Z,6.43
2023-04-11T20:27:51.350Z,6.33
2023-04-11T20:30:20.916Z,6.27
2023-04-11T20:32:48.740Z,6.50
2023-04-11T20:35:16.674Z,6.37
2023-04-11T20:37:44.451Z,6.80
2023-04-11T20:40:13.797Z,7.40
2023-04-11T20:42:42.653Z,6.93
2023-04-11T20:45:12.025Z,6.97
2023-04-11T20:47:44.827Z,6.90
2023-04-11T20:50:14.534Z,6.80
2023-04-11T20:52:43.809Z,6.43
2023-04-11T20:55:12.681Z,6.70
2023-04-11T20:57:40.572Z,6.50
2023-04-11T21:00:13.918Z,7.07
2023-04-11T21:02:44.229Z,6.40
2023-04-11T21:05:13.205Z,6.50
2023-04-11T21:07:42.101Z,7.77
2023-04-11T21:10:11.997Z,7.50
2023-04-11T21:12:41.300Z,7.63
2023-04-11T21:15:10.426Z,8.47
2023-04-11T21:17:39.425Z,8.83
2023-04-11T21:20:17.887Z,7.90
2023-04-11T21:22:46.479Z,8.17
2023-04-11T21:25:14.355Z,7.57
2023-04-11T21:27:42.208Z,8.17
2023-04-11T21:30:11.398Z,7.53
2023-04-11T21:32:39.978Z,7.87
2023-04-11T21:35:10.826Z,7.97
2023-04-11T21:37:38.922Z,8.47
2023-04-11T21:40:08.460Z,9.30
2023-04-11T21:42:36.406Z,8.23
2023-04-11T21:45:04.540Z,8.40
2023-04-11T21:47:32.332Z,9.00
2023-04-11T21:50:00.177Z,8.90
2023-04-11T21:52:29.249Z,9.17
2023-04-11T21:54:57.090Z,9.23
2023-04-11T21:57:24.901Z,9.23
2023-04-11T21:59:52.957Z,9.30
2023-04-11T22:02:21.106Z,8.97
2023-04-11T22:05:04.941Z,9.13
2023-04-11T22:07:39.044Z,8.90
2023-04-11T22:10:10.511Z,8.13
2023-04-11T22:12:38.903Z,9.00
2023-04-11T22:15:07.701Z,8.87
2023-04-11T22:17:37.258Z,8.67
2023-04-11T22:20:09.812Z,8.90
2023-04-11T22:22:39.005Z,8.00
2023-04-11T22:25:08.387Z,8.70
2023-04-11T22:27:36.231Z,8.67
2023-04-11T22:30:05.292Z,9.57
2023-04-11T22:32:33.676Z,8.70
2023-04-11T22:35:01.600Z,8.67
2023-04-11T22:37:29.484Z,8.70
2023-04-11T22:39:58.864Z,9.70
2023-04-11T22:42:26.793Z,8.93
2023-04-11T22:44:54.584Z,8.40
2023-04-11T22:47:22.327Z,8.30
2023-04-11T22:49:50.496Z,8.80
2023-04-11T22:52:24.166Z,8.63
2023-04-11T22:54:52.088Z,8.30
2023-04-11T22:57:21.507Z,8.27
2023-04-11T22:59:49.298Z,7.87
2023-04-11T23:02:17.444Z,8.70
2023-04-11T23:04:45.561Z,8.43
2023-04-11T23:07:13.446Z,8.57
2023-04-11T23:09:41.328Z,7.63
2023-04-11T23:12:09.084Z,8.70
2023-04-11T23:14:38.255Z,8.40
2023-04-11T23:17:06.134Z,8.70
2023-04-11T23:19:34.130Z,8.43
2023-04-11T23:22:01.950Z,9.03
2023-04-11T23:24:30.138Z,7.90
2023-04-11T23:26:58.426Z,8.47
2023-04-11T23:29:27.269Z,8.17
2023-04-11T23:31:56.646Z,9.20
2023-04-11T23:34:24.477Z,8.23
2023-04-11T23:36:52.802Z,8.70
2023-04-11T23:39:21.583Z,8.73
2023-04-11T23:41:49.282Z,9.00
2023-04-11T23:44:17.108Z,9.33
2023-04-11T23:46:44.896Z,8.97
2023-04-11T23:49:14.042Z,9.13
2023-04-11T23:51:41.792Z,9.27
2023-04-11T23:54:09.579Z,8.63
2023-04-11T23:56:37.766Z,9.43
2023-04-11T23:59:05.512Z,8.80
